createdAt,value
2023-03-21T00:00:48.236Z,7.97
2023-03-21T00:03:18.145Z,8.07
2023-03-21T00:05:50.141Z,8.60
2023-03-21T00:08:21.303Z,8.10
2023-03-21T00:11:02.412Z,8.10
2023-03-21T00:13:33.318Z,8.37
2023-03-21T00:16:18.746Z,8.95
2023-03-21T00:18:52.790Z,9.03
2023-03-21T00:21:55.277Z,8.28
2023-03-21T00:24:04.125Z,8.15
2023-03-21T00:26:34.508Z,8.45
2023-03-21T00:29:04.741Z,8.35
2023-03-21T00:31:34.246Z,9.40
2023-03-21T00:34:03.682Z,10.00
2023-03-21T00:36:34.306Z,9.20
2023-03-21T00:39:05.530Z,9.75
2023-03-21T00:41:42.534Z,8.10
2023-03-21T00:44:07.010Z,8.00
2023-03-21T00:46:45.463Z,8.93
2023-03-21T00:49:08.677Z,8.68
2023-03-21T00:51:38.107Z,8.13
2023-03-21T00:54:08.212Z,7.33
2023-03-21T00:56:37.639Z,8.05
2023-03-21T00:59:07.154Z,7.28
2023-03-21T01:01:38.443Z,7.70
2023-03-21T01:04:11.198Z,7.03
2023-03-21T01:06:42.780Z,7.12
2023-03-21T01:09:17.993Z,7.28
2023-03-21T01:11:48.520Z,7.60
2023-03-21T01:14:22.895Z,7.35
2023-03-21T01:16:53.670Z,7.28
2023-03-21T01:22:00.251Z,6.72
2023-03-21T01:24:29.952Z,6.53
2023-03-21T01:26:59.996Z,6.75
2023-03-21T01:29:29.627Z,5.85
2023-03-21T01:31:59.678Z,6.47
2023-03-21T01:34:29.988Z,6.06
2023-03-21T01:36:59.664Z,6.45
2023-03-21T01:39:29.194Z,6.08
2023-03-21T01:41:58.617Z,6.25
2023-03-21T01:44:30.914Z,6.65
2023-03-21T01:47:10.326Z,6.45
2023-03-21T01:49:46.495Z,6.70
2023-03-21T01:52:35.391Z,6.05
2023-03-21T01:55:14.107Z,6.40
2023-03-21T01:58:04.697Z,6.33
2023-03-21T02:00:29.522Z,6.78
2023-03-21T02:03:13.838Z,6.05
2023-03-21T02:05:51.404Z,5.80
2023-03-21T02:08:30.502Z,6.97
2023-03-21T02:10:55.447Z,5.67
2023-03-21T02:13:26.658Z,5.53
2023-03-21T02:16:04.987Z,5.62
2023-03-21T02:18:42.138Z,6.10
2023-03-21T02:21:20.684Z,5.72
2023-03-21T02:24:31.127Z,5.72
2023-03-21T02:27:16.640Z,5.50
2023-03-21T02:30:29.471Z,5.60
2023-03-21T02:33:26.304Z,6.17
2023-03-21T02:36:19.904Z,6.05
2023-03-21T02:39:12.228Z,5.90
2023-03-21T02:41:53.630Z,5.92
2023-03-21T02:44:27.856Z,6.30
2023-03-21T02:49:32.711Z,6.67
2023-03-21T02:52:15.510Z,6.35
2023-03-21T02:54:48.392Z,6.03
2023-03-21T02:57:13.785Z,6.20
2023-03-21T02:59:53.792Z,5.42
2023-03-21T03:02:19.469Z,5.90
2023-03-21T03:04:49.670Z,5.30
2023-03-21T03:07:34.233Z,6.28
2023-03-21T03:10:26.238Z,5.55
2023-03-21T03:13:04.243Z,6.17
2023-03-21T03:15:39.466Z,5.70
2023-03-21T03:18:24.629Z,6.08
2023-03-21T03:21:01.513Z,5.75
2023-03-21T03:25:49.164Z,6.35
2023-03-21T03:28:22.109Z,6.37
2023-03-21T03:31:08.017Z,5.80
2023-03-21T03:33:28.666Z,6.65
2023-03-21T03:36:05.482Z,6.00
2023-03-21T03:38:34.137Z,6.83
2023-03-21T03:41:12.810Z,6.40
2023-03-21T03:43:48.761Z,6.05
2023-03-21T03:46:21.266Z,6.37
2023-03-21T03:51:27.799Z,6.22
2023-03-21T03:54:14.268Z,6.62
2023-03-21T03:56:45.870Z,6.62
2023-03-21T03:59:25.040Z,6.40
2023-03-21T04:02:02.022Z,5.67
2023-03-21T04:04:32.697Z,7.35
2023-03-21T04:07:03.548Z,5.60
2023-03-21T04:09:43.593Z,5.70
2023-03-21T04:12:05.228Z,6.40
2023-03-21T04:14:44.560Z,6.00
2023-03-21T04:17:07.274Z,6.65
2023-03-21T04:19:37.480Z,6.75
2023-03-21T04:22:07.951Z,6.03
2023-03-21T04:24:41.037Z,6.45
2023-03-21T04:27:11.395Z,6.15
2023-03-21T04:29:43.575Z,6.80
2023-03-21T04:32:27.750Z,6.42
2023-03-21T04:34:58.959Z,6.83
2023-03-21T04:37:29.551Z,6.97
2023-03-21T04:39:59.006Z,6.40
2023-03-21T04:42:29.110Z,6.50
2023-03-21T04:44:58.606Z,6.67
2023-03-21T04:47:29.219Z,6.08
2023-03-21T04:49:58.697Z,6.28
2023-03-21T04:52:28.197Z,7.28
2023-03-21T04:54:59.401Z,6.53
2023-03-21T04:57:29.577Z,6.55
2023-03-21T05:00:01.114Z,6.78
2023-03-21T05:02:31.292Z,7.28
2023-03-21T05:05:01.289Z,7.65
2023-03-21T05:07:32.966Z,7.08
2023-03-21T05:10:05.672Z,7.03
2023-03-21T05:12:35.834Z,6.33
2023-03-21T05:15:06.525Z,6.12
2023-03-21T05:17:36.632Z,7.33
2023-03-21T05:20:08.581Z,7.30
2023-03-21T05:22:39.804Z,7.60
2023-03-21T05:25:13.499Z,7.12
2023-03-21T05:27:49.591Z,6.58
2023-03-21T05:30:39.626Z,6.30
2023-03-21T05:33:09.103Z,7.15
2023-03-21T05:35:39.946Z,6.62
2023-03-21T05:38:10.850Z,5.80
2023-03-21T05:40:42.118Z,6.53
2023-03-21T05:43:11.707Z,7.05
2023-03-21T05:45:42.580Z,6.67
2023-03-21T05:48:12.301Z,6.12
2023-03-21T05:50:43.701Z,6.10
2023-03-21T05:53:14.861Z,6.00
2023-03-21T05:55:44.386Z,6.60
2023-03-21T05:58:15.574Z,7.30
2023-03-21T06:00:47.799Z,6.28
2023-03-21T06:03:21.942Z,7.00
2023-03-21T06:06:04.197Z,6.40
2023-03-21T06:08:38.682Z,5.96
2023-03-21T06:11:11.391Z,6.00
2023-03-21T06:13:40.990Z,6.05
2023-03-21T06:16:10.666Z,6.17
2023-03-21T06:18:40.750Z,6.28
2023-03-21T06:21:20.762Z,5.50
2023-03-21T06:23:52.786Z,6.57
2023-03-21T06:26:23.660Z,6.00
2023-03-21T06:28:56.591Z,6.92
2023-03-21T06:31:26.762Z,7.07
2023-03-21T06:33:58.614Z,7.47
2023-03-21T06:36:28.554Z,8.13
2023-03-21T06:38:58.720Z,7.27
2023-03-21T06:41:28.774Z,7.85
2023-03-21T06:44:01.396Z,8.60
2023-03-21T06:46:32.608Z,8.35
2023-03-21T06:49:02.661Z,8.55
2023-03-21T06:51:32.112Z,8.35
2023-03-21T06:54:06.260Z,7.40
2023-03-21T06:56:44.297Z,7.83
2023-03-21T06:59:14.612Z,7.55
2023-03-21T07:01:48.821Z,8.60
2023-03-21T07:04:18.730Z,7.95
2023-03-21T07:06:48.605Z,9.58
2023-03-21T07:09:21.131Z,9.43
2023-03-21T07:11:52.453Z,8.53
2023-03-21T07:16:53.312Z,8.53
2023-03-21T07:19:23.678Z,10.18
2023-03-21T07:21:54.408Z,9.53
2023-03-21T07:24:23.836Z,8.78
2023-03-21T07:26:53.809Z,8.68
2023-03-21T07:29:23.303Z,8.55
2023-03-21T07:31:52.752Z,7.92
2023-03-21T07:34:24.397Z,7.70
2023-03-21T07:36:53.930Z,6.92
2023-03-21T07:39:23.821Z,6.62
2023-03-21T07:41:56.316Z,7.50
2023-03-21T07:44:27.906Z,7.12
2023-03-21T07:46:59.368Z,6.85
2023-03-21T07:49:28.786Z,6.40
2023-03-21T07:51:59.736Z,7.17
2023-03-21T07:54:29.660Z,7.17
2023-03-21T07:56:59.364Z,6.87
2023-03-21T07:59:29.153Z,7.25
2023-03-21T08:01:58.637Z,7.15
2023-03-21T08:04:28.113Z,7.17
2023-03-21T08:06:57.717Z,6.97
2023-03-21T08:09:27.132Z,6.83
2023-03-21T08:11:56.566Z,8.00
2023-03-21T08:14:26.084Z,7.30
2023-03-21T08:16:55.694Z,7.58
2023-03-21T08:19:26.842Z,6.75
2023-03-21T08:21:57.908Z,6.97
2023-03-21T08:24:28.647Z,6.33
2023-03-21T08:26:58.441Z,6.53
2023-03-21T08:29:29.945Z,6.65
2023-03-21T08:31:59.370Z,5.62
2023-03-21T08:34:28.813Z,6.40
2023-03-21T08:36:58.493Z,6.00
2023-03-21T08:39:28.463Z,6.12
2023-03-21T08:41:58.024Z,6.72
2023-03-21T08:44:27.466Z,5.65
2023-03-21T08:46:57.631Z,6.05
2023-03-21T08:49:27.836Z,6.00
2023-03-21T08:51:57.860Z,5.72
2023-03-21T08:54:27.661Z,6.97
2023-03-21T08:56:57.489Z,8.05
2023-03-21T08:59:27.092Z,6.75
2023-03-21T09:01:57.660Z,6.33
2023-03-21T09:04:27.159Z,6.67
2023-03-21T09:06:57.582Z,5.87
2023-03-21T09:09:27.873Z,5.75
2023-03-21T09:11:57.543Z,6.25
2023-03-21T09:14:29.149Z,6.15
2023-03-21T09:16:59.158Z,6.40
2023-03-21T09:19:30.413Z,5.83
2023-03-21T09:22:00.531Z,6.67
2023-03-21T09:24:30.014Z,5.22
2023-03-21T09:26:59.541Z,5.28
2023-03-21T09:29:29.504Z,5.60
2023-03-21T09:32:02.272Z,6.47
2023-03-21T09:34:32.438Z,5.90
2023-03-21T09:37:02.470Z,5.22
2023-03-21T09:39:32.885Z,6.42
2023-03-21T09:42:28.336Z,6.55
2023-03-21T09:45:05.675Z,5.60
2023-03-21T09:47:42.695Z,5.55
2023-03-21T09:50:22.485Z,5.75
2023-03-21T09:53:05.654Z,5.72
2023-03-21T09:55:38.918Z,5.67
2023-03-21T09:58:28.612Z,5.65
2023-03-21T10:01:09.352Z,5.87
2023-03-21T10:03:39.445Z,5.55
2023-03-21T10:06:13.201Z,5.35
2023-03-21T10:08:44.709Z,5.15
2023-03-21T10:11:18.459Z,5.60
2023-03-21T10:13:59.902Z,5.05
2023-03-21T10:16:57.300Z,5.45
2023-03-21T10:19:29.696Z,5.72
2023-03-21T10:22:01.820Z,5.30
2023-03-21T10:24:32.729Z,5.10
2023-03-21T10:27:04.953Z,4.70
2023-03-21T10:29:46.387Z,5.20
2023-03-21T10:32:18.693Z,5.30
2023-03-21T10:34:58.502Z,5.03
2023-03-21T10:37:29.218Z,4.80
2023-03-21T10:39:58.684Z,5.33
2023-03-21T10:42:32.392Z,5.30
2023-03-21T10:45:02.084Z,5.70
2023-03-21T10:47:35.688Z,5.10
2023-03-21T10:50:13.839Z,5.40
2023-03-21T10:52:49.557Z,5.55
2023-03-21T10:55:28.956Z,5.90
2023-03-21T10:58:02.002Z,5.25
2023-03-21T11:03:03.864Z,5.70
2023-03-21T11:05:41.320Z,5.42
2023-03-21T11:08:16.841Z,5.20
2023-03-21T11:11:10.027Z,4.80
2023-03-21T11:13:46.443Z,5.20
2023-03-21T11:16:25.659Z,4.90
2023-03-21T11:18:58.202Z,4.30
2023-03-21T11:21:29.784Z,4.53
2023-03-21T11:23:59.477Z,4.55
2023-03-21T11:26:37.913Z,4.15
2023-03-21T11:29:13.284Z,4.05
2023-03-21T11:31:45.198Z,4.10
2023-03-21T11:34:29.480Z,3.57
2023-03-21T11:37:03.374Z,3.12
2023-03-21T11:42:09.816Z,3.70
2023-03-21T11:44:45.476Z,3.65
2023-03-21T11:47:15.242Z,3.98
2023-03-21T11:49:45.133Z,4.17
2023-03-21T11:52:26.393Z,3.83
2023-03-21T11:55:04.742Z,4.17
2023-03-21T11:57:40.496Z,4.30
2023-03-21T12:00:14.664Z,4.12
2023-03-21T12:02:48.656Z,4.67
2023-03-21T12:05:24.152Z,4.97
2023-03-21T12:08:03.599Z,4.80
2023-03-21T12:10:38.898Z,4.85
2023-03-21T12:13:32.696Z,4.87
2023-03-21T12:16:42.768Z,7.50
2023-03-21T12:19:27.243Z,6.97
2023-03-21T12:22:32.807Z,4.60
2023-03-21T12:25:08.830Z,5.00
2023-03-21T12:27:47.408Z,4.53
2023-03-21T12:30:40.960Z,4.92
2023-03-21T12:33:37.906Z,4.37
2023-03-21T12:36:31.171Z,3.98
2023-03-21T12:39:28.378Z,3.90
2023-03-21T12:42:01.354Z,3.52
2023-03-21T12:47:22.464Z,3.67
2023-03-21T12:50:01.733Z,3.55
2023-03-21T12:55:02.311Z,3.30
2023-03-21T12:57:40.131Z,3.40
2023-03-21T13:00:30.833Z,3.25
2023-03-21T13:03:09.161Z,3.55
2023-03-21T13:05:59.454Z,2.92
2023-03-21T13:08:47.069Z,2.33
2023-03-21T13:11:22.944Z,2.55
2023-03-21T13:14:28.076Z,2.05
2023-03-21T13:17:09.497Z,2.00
2023-03-21T13:19:48.164Z,2.30
2023-03-21T13:22:26.945Z,2.27
2023-03-21T13:25:05.432Z,2.00
2023-03-21T13:27:42.821Z,1.90
2023-03-21T13:30:27.146Z,1.95
2023-03-21T13:33:14.890Z,1.60
2023-03-21T13:35:46.862Z,2.10
2023-03-21T13:38:25.602Z,1.75
2023-03-21T13:41:03.927Z,1.55
2023-03-21T13:43:37.348Z,1.47
2023-03-21T13:46:10.279Z,1.75
2023-03-21T13:48:59.183Z,1.65
2023-03-21T13:51:44.250Z,1.77
2023-03-21T13:54:27.766Z,1.82
2023-03-21T13:57:02.592Z,1.72
2023-03-21T13:59:41.708Z,1.50
2023-03-21T14:02:36.277Z,1.60
2023-03-21T14:05:12.611Z,1.55
2023-03-21T14:07:45.084Z,1.80
2023-03-21T14:10:39.124Z,1.75
2023-03-21T14:13:10.865Z,1.50
2023-03-21T14:15:56.242Z,1.40
2023-03-21T14:18:35.282Z,1.22
2023-03-21T14:21:02.348Z,1.37
2023-03-21T14:23:32.699Z,1.72
2023-03-21T14:26:04.630Z,1.40
2023-03-21T14:28:36.172Z,1.32
2023-03-21T14:31:07.489Z,1.47
2023-03-21T14:33:41.401Z,1.40
2023-03-21T14:36:20.254Z,1.52
2023-03-21T14:38:58.762Z,1.57
2023-03-21T14:41:30.501Z,1.57
2023-03-21T14:44:19.622Z,1.50
2023-03-21T14:46:49.809Z,1.33
2023-03-21T14:49:29.382Z,1.60
2023-03-21T14:52:06.635Z,1.52
2023-03-21T14:54:37.371Z,1.40
2023-03-21T14:57:13.108Z,1.52
2023-03-21T14:59:43.581Z,1.57
2023-03-21T15:02:22.181Z,1.20
2023-03-21T15:04:54.368Z,1.52
2023-03-21T15:07:27.300Z,1.60
2023-03-21T15:12:26.872Z,1.20
2023-03-21T15:14:57.502Z,1.70
2023-03-21T15:17:29.239Z,1.52
2023-03-21T15:19:59.160Z,1.90
2023-03-21T15:22:37.435Z,1.95
2023-03-21T15:25:10.382Z,2.08
2023-03-21T15:30:22.763Z,2.15
2023-03-21T15:32:52.620Z,1.98
2023-03-21T15:35:25.380Z,2.30
2023-03-21T15:37:58.889Z,2.10
2023-03-21T15:40:31.321Z,1.85
2023-03-21T15:43:09.686Z,1.98
2023-03-21T15:45:54.611Z,1.90
2023-03-21T15:48:29.728Z,2.20
2023-03-21T15:51:08.440Z,2.40
2023-03-21T15:53:42.090Z,2.37
2023-03-21T15:56:14.067Z,2.60
2023-03-21T15:58:45.903Z,2.00
2023-03-21T16:01:22.472Z,2.00
2023-03-21T16:04:00.426Z,2.08
2023-03-21T16:06:40.614Z,2.17
2023-03-21T16:09:17.446Z,1.98
2023-03-21T16:11:51.463Z,1.82
2023-03-21T16:14:22.039Z,1.87
2023-03-21T16:16:53.315Z,1.70
2023-03-21T16:19:24.840Z,1.60
2023-03-21T16:21:54.266Z,1.57
2023-03-21T16:24:23.689Z,1.90
2023-03-21T16:26:53.746Z,2.12
2023-03-21T16:29:24.394Z,2.08
2023-03-21T16:31:53.916Z,1.55
2023-03-21T16:34:23.605Z,1.70
2023-03-21T16:36:53.049Z,1.87
2023-03-21T16:39:26.412Z,1.70
2023-03-21T16:41:55.956Z,1.87
2023-03-21T16:44:25.392Z,1.70
2023-03-21T16:46:54.888Z,2.02
2023-03-21T16:49:28.406Z,1.75
2023-03-21T16:51:58.401Z,1.92
2023-03-21T16:54:28.158Z,2.08
2023-03-21T16:56:59.870Z,1.98
2023-03-21T16:59:29.446Z,2.10
2023-03-21T17:01:58.848Z,1.70
2023-03-21T17:04:28.535Z,2.03
2023-03-21T17:06:57.948Z,1.85
2023-03-21T17:09:28.546Z,1.98
2023-03-21T17:11:59.103Z,1.90
2023-03-21T17:14:28.635Z,1.90
2023-03-21T17:16:58.501Z,2.12
2023-03-21T17:19:28.052Z,2.30
2023-03-21T17:21:57.510Z,2.00
2023-03-21T17:24:28.852Z,2.17
2023-03-21T17:26:58.726Z,2.30
2023-03-21T17:29:28.330Z,2.35
2023-03-21T17:31:58.056Z,2.77
2023-03-21T17:34:27.560Z,2.17
2023-03-21T17:36:57.364Z,1.92
2023-03-21T17:39:28.879Z,2.02
2023-03-21T17:41:58.494Z,2.58
2023-03-21T17:44:27.940Z,2.12
2023-03-21T17:46:58.701Z,2.20
2023-03-21T17:49:28.295Z,2.12
2023-03-21T17:52:00.850Z,2.30
2023-03-21T17:54:30.698Z,2.83
2023-03-21T17:57:00.697Z,2.43
2023-03-21T17:59:30.513Z,2.33
2023-03-21T18:02:00.141Z,2.20
2023-03-21T18:04:29.673Z,2.70
2023-03-21T18:07:01.440Z,2.98
2023-03-21T18:09:31.245Z,3.05
2023-03-21T18:12:00.675Z,2.80
2023-03-21T18:14:31.049Z,2.50
2023-03-21T18:17:00.629Z,2.65
2023-03-21T18:19:31.392Z,3.00
2023-03-21T18:22:02.058Z,2.58
2023-03-21T18:24:34.890Z,2.40
2023-03-21T18:27:06.057Z,2.30
2023-03-21T18:32:09.279Z,2.92
2023-03-21T18:34:40.392Z,2.55
2023-03-21T18:37:13.333Z,2.47
2023-03-21T18:39:43.900Z,2.62
2023-03-21T18:42:20.437Z,2.37
2023-03-21T18:44:47.909Z,2.20
2023-03-21T18:47:18.795Z,3.10
2023-03-21T18:52:19.327Z,3.30
2023-03-21T18:54:49.718Z,2.77
2023-03-21T18:57:37.448Z,3.27
2023-03-21T18:59:50.580Z,3.45
2023-03-21T19:02:22.625Z,3.02
2023-03-21T19:04:52.637Z,3.98
2023-03-21T19:07:22.123Z,3.55
2023-03-21T19:10:15.393Z,3.95
2023-03-21T19:12:23.170Z,4.22
2023-03-21T19:14:52.673Z,4.10
2023-03-21T19:18:23.281Z,4.45
2023-03-21T19:19:54.603Z,4.58
2023-03-21T19:22:24.034Z,5.05
2023-03-21T19:24:54.067Z,7.22
2023-03-21T19:27:23.667Z,8.67
2023-03-21T19:30:10.793Z,8.70
2023-03-21T19:32:26.286Z,9.63
2023-03-21T19:34:56.460Z,9.30
2023-03-21T19:37:27.392Z,8.78
2023-03-21T19:39:57.362Z,8.53
2023-03-21T19:42:29.310Z,8.58
2023-03-21T19:44:59.292Z,9.50
2023-03-21T19:47:28.788Z,8.50
2023-03-21T19:52:29.648Z,13.10
2023-03-21T19:54:59.215Z,12.03
2023-03-21T19:57:28.765Z,11.80
2023-03-21T19:59:58.565Z,12.85
2023-03-21T20:02:36.970Z,13.13
2023-03-21T20:04:59.516Z,14.78
2023-03-21T20:07:30.813Z,14.68
2023-03-21T20:10:00.840Z,14.30
2023-03-21T20:12:31.973Z,12.07
2023-03-21T20:15:16.382Z,12.35
2023-03-21T20:17:35.062Z,12.10
2023-03-21T20:20:12.428Z,12.63
2023-03-21T20:23:06.722Z,12.95
2023-03-21T20:25:15.877Z,12.55
2023-03-21T20:27:46.110Z,12.50
2023-03-21T20:30:18.991Z,13.48
2023-03-21T20:32:49.104Z,13.40
2023-03-21T20:35:32.944Z,11.88
2023-03-21T20:37:51.872Z,12.18
2023-03-21T20:40:24.818Z,11.28
2023-03-21T20:42:56.461Z,10.53
2023-03-21T20:45:25.966Z,10.70
2023-03-21T20:47:55.488Z,11.00
2023-03-21T20:50:27.754Z,11.15
2023-03-21T20:53:06.802Z,12.18
2023-03-21T20:55:28.499Z,11.97
2023-03-21T20:58:02.208Z,12.15
2023-03-21T21:00:32.251Z,13.32
2023-03-21T21:03:02.576Z,15.78
2023-03-21T21:05:34.848Z,16.73
2023-03-21T21:08:05.919Z,18.92
2023-03-21T21:10:52.408Z,19.10
2023-03-21T21:13:08.483Z,19.85
2023-03-21T21:15:38.038Z,20.95
2023-03-21T21:18:08.297Z,25.95
2023-03-21T21:20:39.167Z,27.77
2023-03-21T21:23:09.564Z,24.50
2023-03-21T21:25:39.646Z,25.72
2023-03-21T21:28:09.432Z,25.37
2023-03-21T21:30:41.959Z,23.12
2023-03-21T21:33:13.381Z,22.65
2023-03-21T21:35:44.775Z,22.65
2023-03-21T21:38:17.631Z,25.08
2023-03-21T21:40:49.004Z,24.87
2023-03-21T21:43:21.642Z,23.45
2023-03-21T21:45:52.079Z,24.77
2023-03-21T21:48:21.775Z,24.37
2023-03-21T21:50:54.609Z,24.50
2023-03-21T21:53:24.123Z,22.40
2023-03-21T21:55:54.324Z,22.30
2023-03-21T21:58:26.173Z,21.07
2023-03-21T22:01:01.899Z,20.30
2023-03-21T22:03:33.525Z,20.23
2023-03-21T22:06:04.840Z,19.02
2023-03-21T22:08:34.483Z,18.57
2023-03-21T22:11:05.146Z,18.00
2023-03-21T22:13:34.651Z,17.10
2023-03-21T22:16:04.212Z,19.42
2023-03-21T22:18:38.013Z,18.80
2023-03-21T22:21:08.109Z,18.65
2023-03-21T22:23:37.706Z,19.45
2023-03-21T22:26:07.839Z,18.52
2023-03-21T22:28:40.164Z,19.25
2023-03-21T22:31:18.913Z,19.57
2023-03-21T22:33:48.917Z,18.95
2023-03-21T22:36:18.345Z,18.77
2023-03-21T22:38:47.962Z,19.73
2023-03-21T22:41:17.377Z,19.25
2023-03-21T22:43:46.933Z,19.35
2023-03-21T22:46:16.689Z,19.57
2023-03-21T22:48:46.220Z,18.05
2023-03-21T22:51:15.840Z,18.05
2023-03-21T22:53:45.837Z,19.30
2023-03-21T22:56:16.937Z,18.92
2023-03-21T22:58:47.304Z,19.73
2023-03-21T23:01:16.781Z,18.67
2023-03-21T23:03:46.316Z,18.87
2023-03-21T23:06:16.838Z,19.42
2023-03-21T23:08:46.434Z,18.82
2023-03-21T23:11:15.969Z,18.35
2023-03-21T23:13:47.572Z,17.98
2023-03-21T23:16:17.357Z,18.67
2023-03-21T23:18:46.926Z,17.30
2023-03-21T23:21:18.596Z,16.20
2023-03-21T23:23:49.698Z,17.80
2023-03-21T23:26:22.240Z,16.62
2023-03-21T23:28:52.230Z,16.00
2023-03-21T23:31:24.193Z,16.00
2023-03-21T23:33:55.049Z,15.65
2023-03-21T23:36:24.516Z,14.63
2023-03-21T23:38:54.493Z,13.63
2023-03-21T23:41:26.021Z,15.68
2023-03-21T23:43:55.672Z,14.13
2023-03-21T23:46:25.443Z,15.25
2023-03-21T23:48:55.017Z,14.30
2023-03-21T23:51:24.461Z,13.15
2023-03-21T23:53:55.659Z,13.80
2023-03-21T23:56:27.477Z,13.65
2023-03-21T23:58:59.091Z,13.23
